Louisburg, Kansas
Current Conditions -  °F | °C
As of 3:53 PM on Saturday 20 Dec 2014 (Local Time) from KOJC Reporting Station
Overcast Overcast  
Wind Chill: 38°   Ceiling: 2000
Heat Index: 44°   Visibility: 8mi
Dew Point: 37°   Wind: 12mph
Humidity: 76%   Direction: 180°S
Pressure: 30.11"   Gusts: NA
Location:  38.62°N, 94.68°W
Report Text: KOJC 202153Z 18010KT 8SM OVC020 07/03 A3011 RMK AO2 SLP203 T00670028
Loading
Personal Weather Stations






























Interactive Weather Map New forecast layout! Learn more

10-Day Weather Forecast

Advertisements
Track Severe Weather on mobile